sensor_id;sensor_type;location;lat;lon;timestamp;P1;durP1;ratioP1;P2;durP2;ratioP2
46507;SDS011;32223;53.654;10.014;2024-01-16T00:01:44;5.32;;;2.50;;
46507;SDS011;32223;53.654;10.014;2024-01-16T00:04:10;4.28;;;2.47;;
46507;SDS011;32223;53.654;10.014;2024-01-16T00:06:42;5.60;;;2.88;;
46507;SDS011;32223;53.654;10.014;2024-01-16T00:09:08;10.35;;;2.78;;
46507;SDS011;32223;53.654;10.014;2024-01-16T00:11:40;8.73;;;3.17;;
46507;SDS011;32223;53.654;10.014;2024-01-16T00:14:06;6.18;;;3.05;;
46507;SDS011;32223;53.654;10.014;2024-01-16T00:16:32;4.47;;;2.50;;
46507;SDS011;32223;53.654;10.014;2024-01-16T00:18:57;7.15;;;3.22;;
46507;SDS011;32223;53.654;10.014;2024-01-16T00:21:23;5.70;;;3.00;;
46507;SDS011;32223;53.654;10.014;2024-01-16T00:23:48;5.47;;;2.60;;
46507;SDS011;32223;53.654;10.014;2024-01-16T00:26:23;2.72;;;1.98;;
46507;SDS011;32223;53.654;10.014;2024-01-16T00:28:49;4.57;;;2.63;;
46507;SDS011;32223;53.654;10.014;2024-01-16T00:31:14;5.40;;;2.20;;
46507;SDS011;32223;53.654;10.014;2024-01-16T00:33:40;3.33;;;2.33;;
46507;SDS011;32223;53.654;10.014;2024-01-16T00:36:06;3.38;;;2.10;;
46507;SDS011;32223;53.654;10.014;2024-01-16T00:38:34;5.10;;;2.72;;
46507;SDS011;32223;53.654;10.014;2024-01-16T00:41:00;5.18;;;2.25;;
46507;SDS011;32223;53.654;10.014;2024-01-16T00:43:26;4.22;;;2.08;;
46507;SDS011;32223;53.654;10.014;2024-01-16T00:45:51;6.93;;;2.67;;
46507;SDS011;32223;53.654;10.014;2024-01-16T00:48:17;6.60;;;2.78;;
46507;SDS011;32223;53.654;10.014;2024-01-16T00:50:44;4.38;;;2.10;;
46507;SDS011;32223;53.654;10.014;2024-01-16T00:53:11;5.28;;;2.30;;
46507;SDS011;32223;53.654;10.014;2024-01-16T00:55:37;3.40;;;2.05;;
46507;SDS011;32223;53.654;10.014;2024-01-16T00:58:02;4.65;;;2.38;;
46507;SDS011;32223;53.654;10.014;2024-01-16T01:00:28;5.00;;;3.53;;
46507;SDS011;32223;53.654;10.014;2024-01-16T01:02:56;6.78;;;2.95;;
46507;SDS011;32223;53.654;10.014;2024-01-16T01:05:23;4.63;;;2.67;;
46507;SDS011;32223;53.654;10.014;2024-01-16T01:07:53;5.97;;;2.83;;
46507;SDS011;32223;53.654;10.014;2024-01-16T01:10:19;5.47;;;2.03;;
46507;SDS011;32223;53.654;10.014;2024-01-16T01:12:45;3.72;;;2.10;;
46507;SDS011;32223;53.654;10.014;2024-01-16T01:15:11;8.60;;;3.28;;
46507;SDS011;32223;53.654;10.014;2024-01-16T01:17:37;7.20;;;3.50;;
46507;SDS011;32223;53.654;10.014;2024-01-16T01:20:02;6.40;;;2.88;;
46507;SDS011;32223;53.654;10.014;2024-01-16T01:22:28;5.78;;;2.47;;
46507;SDS011;32223;53.654;10.014;2024-01-16T01:24:54;4.68;;;1.95;;
46507;SDS011;32223;53.654;10.014;2024-01-16T01:27:19;3.80;;;2.70;;
46507;SDS011;32223;53.654;10.014;2024-01-16T01:29:45;3.50;;;2.15;;
46507;SDS011;32223;53.654;10.014;2024-01-16T01:32:11;4.10;;;2.53;;
46507;SDS011;32223;53.654;10.014;2024-01-16T01:34:36;4.80;;;2.72;;
46507;SDS011;32223;53.654;10.014;2024-01-16T01:37:03;5.22;;;2.53;;
46507;SDS011;32223;53.654;10.014;2024-01-16T01:39:29;5.32;;;2.28;;
46507;SDS011;32223;53.654;10.014;2024-01-16T01:41:55;5.43;;;2.42;;
46507;SDS011;32223;53.654;10.014;2024-01-16T01:44:21;2.92;;;2.00;;
46507;SDS011;32223;53.654;10.014;2024-01-16T01:46:46;5.85;;;2.25;;
46507;SDS011;32223;53.654;10.014;2024-01-16T01:49:13;6.20;;;2.40;;
46507;SDS011;32223;53.654;10.014;2024-01-16T01:51:40;4.88;;;2.53;;
46507;SDS011;32223;53.654;10.014;2024-01-16T01:54:06;3.97;;;2.50;;
46507;SDS011;32223;53.654;10.014;2024-01-16T01:56:32;6.75;;;3.72;;
46507;SDS011;32223;53.654;10.014;2024-01-16T01:58:58;4.78;;;2.15;;
46507;SDS011;32223;53.654;10.014;2024-01-16T02:01:25;5.47;;;2.47;;
46507;SDS011;32223;53.654;10.014;2024-01-16T02:03:52;9.60;;;3.22;;
46507;SDS011;32223;53.654;10.014;2024-01-16T02:06:19;6.15;;;3.83;;
46507;SDS011;32223;53.654;10.014;2024-01-16T02:08:45;4.82;;;2.15;;
46507;SDS011;32223;53.654;10.014;2024-01-16T02:11:11;5.47;;;2.47;;
46507;SDS011;32223;53.654;10.014;2024-01-16T02:13:37;5.75;;;2.75;;
46507;SDS011;32223;53.654;10.014;2024-01-16T02:16:03;5.75;;;2.42;;
46507;SDS011;32223;53.654;10.014;2024-01-16T02:18:29;9.35;;;3.20;;
46507;SDS011;32223;53.654;10.014;2024-01-16T02:20:56;4.20;;;2.40;;
46507;SDS011;32223;53.654;10.014;2024-01-16T02:23:26;7.65;;;2.42;;
46507;SDS011;32223;53.654;10.014;2024-01-16T02:25:52;5.45;;;3.03;;
46507;SDS011;32223;53.654;10.014;2024-01-16T02:28:19;5.65;;;2.80;;
46507;SDS011;32223;53.654;10.014;2024-01-16T02:30:45;6.95;;;2.70;;
46507;SDS011;32223;53.654;10.014;2024-01-16T02:33:11;10.73;;;3.90;;
46507;SDS011;32223;53.654;10.014;2024-01-16T02:35:37;5.43;;;3.33;;
46507;SDS011;32223;53.654;10.014;2024-01-16T02:38:02;5.22;;;2.92;;
46507;SDS011;32223;53.654;10.014;2024-01-16T02:40:28;5.97;;;3.08;;
46507;SDS011;32223;53.654;10.014;2024-01-16T02:42:53;7.55;;;3.05;;
46507;SDS011;32223;53.654;10.014;2024-01-16T02:45:19;5.43;;;3.00;;
46507;SDS011;32223;53.654;10.014;2024-01-16T02:47:45;7.30;;;3.38;;
46507;SDS011;32223;53.654;10.014;2024-01-16T02:50:11;7.00;;;3.53;;
46507;SDS011;32223;53.654;10.014;2024-01-16T02:52:36;8.05;;;3.60;;
46507;SDS011;32223;53.654;10.014;2024-01-16T02:55:02;8.60;;;4.43;;
46507;SDS011;32223;53.654;10.014;2024-01-16T02:57:28;6.75;;;3.42;;
46507;SDS011;32223;53.654;10.014;2024-01-16T02:59:53;7.85;;;4.07;;
46507;SDS011;32223;53.654;10.014;2024-01-16T03:02:19;6.35;;;4.22;;
46507;SDS011;32223;53.654;10.014;2024-01-16T03:04:45;10.05;;;4.80;;
46507;SDS011;32223;53.654;10.014;2024-01-16T03:07:10;15.35;;;5.53;;
46507;SDS011;32223;53.654;10.014;2024-01-16T03:09:36;9.18;;;4.97;;
46507;SDS011;32223;53.654;10.014;2024-01-16T03:12:01;10.52;;;5.80;;
46507;SDS011;32223;53.654;10.014;2024-01-16T03:14:27;11.95;;;6.38;;
46507;SDS011;32223;53.654;10.014;2024-01-16T03:16:53;9.48;;;5.32;;
46507;SDS011;32223;53.654;10.014;2024-01-16T03:19:18;9.90;;;5.53;;
46507;SDS011;32223;53.654;10.014;2024-01-16T03:21:44;12.52;;;5.65;;
46507;SDS011;32223;53.654;10.014;2024-01-16T03:24:10;11.52;;;5.90;;
46507;SDS011;32223;53.654;10.014;2024-01-16T03:26:36;12.80;;;6.47;;
46507;SDS011;32223;53.654;10.014;2024-01-16T03:29:03;10.43;;;5.47;;
46507;SDS011;32223;53.654;10.014;2024-01-16T03:31:29;11.80;;;5.20;;
46507;SDS011;32223;53.654;10.014;2024-01-16T03:33:55;11.20;;;5.70;;
46507;SDS011;32223;53.654;10.014;2024-01-16T03:36:20;10.95;;;6.80;;
46507;SDS011;32223;53.654;10.014;2024-01-16T03:38:46;9.82;;;5.72;;
46507;SDS011;32223;53.654;10.014;2024-01-16T03:41:12;10.65;;;6.13;;
46507;SDS011;32223;53.654;10.014;2024-01-16T03:43:37;11.32;;;5.82;;
46507;SDS011;32223;53.654;10.014;2024-01-16T03:46:03;9.35;;;6.15;;
46507;SDS011;32223;53.654;10.014;2024-01-16T03:48:29;8.48;;;5.07;;
46507;SDS011;32223;53.654;10.014;2024-01-16T03:50:55;12.02;;;6.30;;
46507;SDS011;32223;53.654;10.014;2024-01-16T03:53:21;15.02;;;6.78;;
46507;SDS011;32223;53.654;10.014;2024-01-16T03:55:47;8.85;;;5.35;;
46507;SDS011;32223;53.654;10.014;2024-01-16T03:58:14;11.55;;;5.90;;
46507;SDS011;32223;53.654;10.014;2024-01-16T04:00:40;12.57;;;6.05;;
46507;SDS011;32223;53.654;10.014;2024-01-16T04:03:06;9.50;;;5.75;;
46507;SDS011;32223;53.654;10.014;2024-01-16T04:05:32;10.50;;;5.68;;
46507;SDS011;32223;53.654;10.014;2024-01-16T04:07:58;17.98;;;7.05;;
46507;SDS011;32223;53.654;10.014;2024-01-16T04:10:23;13.98;;;6.72;;
46507;SDS011;32223;53.654;10.014;2024-01-16T04:12:49;11.75;;;6.75;;
46507;SDS011;32223;53.654;10.014;2024-01-16T04:15:15;11.63;;;7.07;;
46507;SDS011;32223;53.654;10.014;2024-01-16T04:17:40;13.82;;;6.78;;
46507;SDS011;32223;53.654;10.014;2024-01-16T04:20:06;12.18;;;6.65;;
46507;SDS011;32223;53.654;10.014;2024-01-16T04:22:32;10.85;;;5.85;;
46507;SDS011;32223;53.654;10.014;2024-01-16T04:24:58;12.20;;;6.03;;
46507;SDS011;32223;53.654;10.014;2024-01-16T04:27:23;10.98;;;6.32;;
46507;SDS011;32223;53.654;10.014;2024-01-16T04:29:50;11.35;;;6.65;;
46507;SDS011;32223;53.654;10.014;2024-01-16T04:32:16;10.45;;;6.35;;
46507;SDS011;32223;53.654;10.014;2024-01-16T04:34:42;12.35;;;6.63;;
46507;SDS011;32223;53.654;10.014;2024-01-16T04:37:07;11.43;;;6.70;;
46507;SDS011;32223;53.654;10.014;2024-01-16T04:39:33;11.98;;;6.78;;
46507;SDS011;32223;53.654;10.014;2024-01-16T04:41:58;15.48;;;6.47;;
46507;SDS011;32223;53.654;10.014;2024-01-16T04:44:24;12.00;;;6.43;;
46507;SDS011;32223;53.654;10.014;2024-01-16T04:46:50;13.25;;;6.88;;
46507;SDS011;32223;53.654;10.014;2024-01-16T04:49:15;13.77;;;6.72;;
46507;SDS011;32223;53.654;10.014;2024-01-16T04:51:41;9.90;;;5.32;;
46507;SDS011;32223;53.654;10.014;2024-01-16T04:54:07;13.13;;;7.20;;
46507;SDS011;32223;53.654;10.014;2024-01-16T04:56:32;11.43;;;6.47;;
46507;SDS011;32223;53.654;10.014;2024-01-16T04:58:58;14.77;;;6.53;;
46507;SDS011;32223;53.654;10.014;2024-01-16T05:01:23;11.43;;;6.90;;
46507;SDS011;32223;53.654;10.014;2024-01-16T05:03:50;11.10;;;6.20;;
46507;SDS011;32223;53.654;10.014;2024-01-16T05:06:15;10.82;;;6.28;;
46507;SDS011;32223;53.654;10.014;2024-01-16T05:08:41;13.05;;;6.80;;
46507;SDS011;32223;53.654;10.014;2024-01-16T05:11:08;11.05;;;6.15;;
46507;SDS011;32223;53.654;10.014;2024-01-16T05:13:34;14.98;;;6.45;;
46507;SDS011;32223;53.654;10.014;2024-01-16T05:16:00;11.75;;;6.05;;
46507;SDS011;32223;53.654;10.014;2024-01-16T05:18:25;11.38;;;6.25;;
46507;SDS011;32223;53.654;10.014;2024-01-16T05:20:51;10.80;;;6.05;;
46507;SDS011;32223;53.654;10.014;2024-01-16T05:23:17;11.90;;;5.65;;
46507;SDS011;32223;53.654;10.014;2024-01-16T05:25:43;10.48;;;5.35;;
46507;SDS011;32223;53.654;10.014;2024-01-16T05:28:08;11.85;;;6.10;;
46507;SDS011;32223;53.654;10.014;2024-01-16T05:30:35;15.55;;;5.55;;
46507;SDS011;32223;53.654;10.014;2024-01-16T05:33:00;12.23;;;5.88;;
46507;SDS011;32223;53.654;10.014;2024-01-16T05:35:26;15.55;;;5.47;;
46507;SDS011;32223;53.654;10.014;2024-01-16T05:37:53;15.10;;;6.88;;
46507;SDS011;32223;53.654;10.014;2024-01-16T05:40:19;11.23;;;6.28;;
46507;SDS011;32223;53.654;10.014;2024-01-16T05:42:44;10.13;;;5.63;;
46507;SDS011;32223;53.654;10.014;2024-01-16T05:45:10;12.57;;;5.95;;
46507;SDS011;32223;53.654;10.014;2024-01-16T05:47:36;11.63;;;6.03;;
46507;SDS011;32223;53.654;10.014;2024-01-16T05:50:02;10.07;;;5.55;;
46507;SDS011;32223;53.654;10.014;2024-01-16T05:52:28;10.32;;;6.03;;
46507;SDS011;32223;53.654;10.014;2024-01-16T05:54:53;14.77;;;6.28;;
46507;SDS011;32223;53.654;10.014;2024-01-16T05:57:22;13.10;;;4.10;;
46507;SDS011;32223;53.654;10.014;2024-01-16T05:59:48;7.32;;;3.78;;
46507;SDS011;32223;53.654;10.014;2024-01-16T06:02:13;8.90;;;4.28;;
46507;SDS011;32223;53.654;10.014;2024-01-16T06:04:39;8.63;;;4.20;;
46507;SDS011;32223;53.654;10.014;2024-01-16T06:07:05;12.07;;;5.45;;
46507;SDS011;32223;53.654;10.014;2024-01-16T06:09:32;8.95;;;4.30;;
46507;SDS011;32223;53.654;10.014;2024-01-16T06:11:58;7.57;;;3.35;;
46507;SDS011;32223;53.654;10.014;2024-01-16T06:14:24;8.43;;;2.42;;
46507;SDS011;32223;53.654;10.014;2024-01-16T06:16:50;4.93;;;2.25;;
46507;SDS011;32223;53.654;10.014;2024-01-16T06:19:16;3.75;;;2.58;;
46507;SDS011;32223;53.654;10.014;2024-01-16T06:21:42;6.00;;;2.53;;
46507;SDS011;32223;53.654;10.014;2024-01-16T06:24:07;5.53;;;1.90;;
46507;SDS011;32223;53.654;10.014;2024-01-16T06:26:33;4.82;;;2.10;;
46507;SDS011;32223;53.654;10.014;2024-01-16T06:28:59;5.50;;;2.13;;
46507;SDS011;32223;53.654;10.014;2024-01-16T06:31:24;5.13;;;2.25;;
46507;SDS011;32223;53.654;10.014;2024-01-16T06:33:51;4.07;;;1.40;;
46507;SDS011;32223;53.654;10.014;2024-01-16T06:36:17;3.13;;;1.50;;
46507;SDS011;32223;53.654;10.014;2024-01-16T06:38:42;4.63;;;2.42;;
46507;SDS011;32223;53.654;10.014;2024-01-16T06:41:08;4.63;;;1.95;;
46507;SDS011;32223;53.654;10.014;2024-01-16T06:43:34;6.80;;;2.58;;
46507;SDS011;32223;53.654;10.014;2024-01-16T06:46:00;6.20;;;2.10;;
46507;SDS011;32223;53.654;10.014;2024-01-16T06:48:26;4.68;;;1.50;;
46507;SDS011;32223;53.654;10.014;2024-01-16T06:50:51;8.30;;;2.85;;
46507;SDS011;32223;53.654;10.014;2024-01-16T06:53:17;3.85;;;1.90;;
46507;SDS011;32223;53.654;10.014;2024-01-16T06:55:43;4.97;;;1.92;;
46507;SDS011;32223;53.654;10.014;2024-01-16T06:58:08;4.60;;;2.63;;
46507;SDS011;32223;53.654;10.014;2024-01-16T07:00:35;7.22;;;2.05;;
46507;SDS011;32223;53.654;10.014;2024-01-16T07:03:01;10.73;;;2.45;;
46507;SDS011;32223;53.654;10.014;2024-01-16T07:05:27;6.07;;;2.13;;
46507;SDS011;32223;53.654;10.014;2024-01-16T07:07:54;7.55;;;2.78;;
46507;SDS011;32223;53.654;10.014;2024-01-16T07:10:20;5.60;;;2.20;;
46507;SDS011;32223;53.654;10.014;2024-01-16T07:12:47;10.48;;;2.13;;
46507;SDS011;32223;53.654;10.014;2024-01-16T07:15:14;4.68;;;2.20;;
46507;SDS011;32223;53.654;10.014;2024-01-16T07:17:40;6.47;;;2.53;;
46507;SDS011;32223;53.654;10.014;2024-01-16T07:20:06;8.32;;;2.40;;
46507;SDS011;32223;53.654;10.014;2024-01-16T07:22:32;6.28;;;2.80;;
46507;SDS011;32223;53.654;10.014;2024-01-16T07:24:59;4.10;;;2.25;;
46507;SDS011;32223;53.654;10.014;2024-01-16T07:27:25;4.28;;;2.20;;
46507;SDS011;32223;53.654;10.014;2024-01-16T07:29:51;6.95;;;2.60;;
46507;SDS011;32223;53.654;10.014;2024-01-16T07:32:16;8.90;;;3.15;;
46507;SDS011;32223;53.654;10.014;2024-01-16T07:34:46;9.57;;;2.30;;
46507;SDS011;32223;53.654;10.014;2024-01-16T07:37:12;5.78;;;2.45;;
46507;SDS011;32223;53.654;10.014;2024-01-16T07:39:37;14.57;;;2.63;;
46507;SDS011;32223;53.654;10.014;2024-01-16T07:42:03;6.93;;;2.47;;
46507;SDS011;32223;53.654;10.014;2024-01-16T07:44:29;4.80;;;3.10;;
46507;SDS011;32223;53.654;10.014;2024-01-16T07:46:55;8.55;;;2.83;;
46507;SDS011;32223;53.654;10.014;2024-01-16T07:49:20;4.00;;;2.28;;
46507;SDS011;32223;53.654;10.014;2024-01-16T07:51:46;4.55;;;2.40;;
46507;SDS011;32223;53.654;10.014;2024-01-16T07:54:11;5.97;;;2.22;;
46507;SDS011;32223;53.654;10.014;2024-01-16T07:56:38;5.47;;;2.45;;
46507;SDS011;32223;53.654;10.014;2024-01-16T07:59:04;4.03;;;2.25;;
46507;SDS011;32223;53.654;10.014;2024-01-16T08:01:30;6.75;;;2.03;;
46507;SDS011;32223;53.654;10.014;2024-01-16T08:03:55;5.55;;;2.00;;
46507;SDS011;32223;53.654;10.014;2024-01-16T08:06:21;6.93;;;2.42;;
46507;SDS011;32223;53.654;10.014;2024-01-16T08:08:48;6.38;;;2.53;;
46507;SDS011;32223;53.654;10.014;2024-01-16T08:11:14;7.82;;;3.05;;
46507;SDS011;32223;53.654;10.014;2024-01-16T08:13:40;6.72;;;3.00;;
46507;SDS011;32223;53.654;10.014;2024-01-16T08:16:06;6.40;;;2.50;;
46507;SDS011;32223;53.654;10.014;2024-01-16T08:18:32;6.45;;;3.30;;
46507;SDS011;32223;53.654;10.014;2024-01-16T08:20:58;5.53;;;2.78;;
46507;SDS011;32223;53.654;10.014;2024-01-16T08:23:24;6.97;;;3.00;;
46507;SDS011;32223;53.654;10.014;2024-01-16T08:25:50;7.25;;;3.00;;
46507;SDS011;32223;53.654;10.014;2024-01-16T08:28:17;6.97;;;2.97;;
46507;SDS011;32223;53.654;10.014;2024-01-16T08:30:43;10.57;;;4.55;;
46507;SDS011;32223;53.654;10.014;2024-01-16T08:33:10;9.13;;;2.67;;
46507;SDS011;32223;53.654;10.014;2024-01-16T08:35:36;5.50;;;2.70;;
46507;SDS011;32223;53.654;10.014;2024-01-16T08:38:02;6.95;;;2.85;;
46507;SDS011;32223;53.654;10.014;2024-01-16T08:40:28;4.80;;;2.70;;
46507;SDS011;32223;53.654;10.014;2024-01-16T08:42:54;10.40;;;3.55;;
46507;SDS011;32223;53.654;10.014;2024-01-16T08:45:23;5.93;;;3.08;;
46507;SDS011;32223;53.654;10.014;2024-01-16T08:47:49;6.25;;;3.08;;
46507;SDS011;32223;53.654;10.014;2024-01-16T08:50:14;6.80;;;3.95;;
46507;SDS011;32223;53.654;10.014;2024-01-16T08:52:41;6.60;;;3.13;;
46507;SDS011;32223;53.654;10.014;2024-01-16T08:55:07;11.77;;;3.97;;
46507;SDS011;32223;53.654;10.014;2024-01-16T08:57:34;6.25;;;3.45;;
46507;SDS011;32223;53.654;10.014;2024-01-16T08:59:59;10.15;;;3.22;;
46507;SDS011;32223;53.654;10.014;2024-01-16T09:02:25;6.40;;;2.78;;
46507;SDS011;32223;53.654;10.014;2024-01-16T09:04:54;8.88;;;3.30;;
46507;SDS011;32223;53.654;10.014;2024-01-16T09:07:20;6.65;;;3.78;;
46507;SDS011;32223;53.654;10.014;2024-01-16T09:09:45;12.65;;;2.50;;
46507;SDS011;32223;53.654;10.014;2024-01-16T09:12:11;8.38;;;3.58;;
46507;SDS011;32223;53.654;10.014;2024-01-16T09:14:37;8.85;;;2.90;;
46507;SDS011;32223;53.654;10.014;2024-01-16T09:17:03;8.52;;;3.20;;
46507;SDS011;32223;53.654;10.014;2024-01-16T09:19:29;4.60;;;2.60;;
46507;SDS011;32223;53.654;10.014;2024-01-16T09:21:55;8.88;;;3.95;;
46507;SDS011;32223;53.654;10.014;2024-01-16T09:24:21;4.60;;;2.88;;
46507;SDS011;32223;53.654;10.014;2024-01-16T09:26:46;7.10;;;2.70;;
46507;SDS011;32223;53.654;10.014;2024-01-16T09:29:12;5.93;;;3.05;;
46507;SDS011;32223;53.654;10.014;2024-01-16T09:31:39;5.57;;;2.50;;
46507;SDS011;32223;53.654;10.014;2024-01-16T09:34:05;4.70;;;2.80;;
46507;SDS011;32223;53.654;10.014;2024-01-16T09:36:31;10.73;;;3.22;;
46507;SDS011;32223;53.654;10.014;2024-01-16T09:38:56;4.88;;;2.70;;
46507;SDS011;32223;53.654;10.014;2024-01-16T09:41:22;9.13;;;3.17;;
46507;SDS011;32223;53.654;10.014;2024-01-16T09:46:24;6.95;;;3.20;;
46507;SDS011;32223;53.654;10.014;2024-01-16T09:48:51;10.05;;;2.95;;
46507;SDS011;32223;53.654;10.014;2024-01-16T09:51:20;6.10;;;2.58;;
46507;SDS011;32223;53.654;10.014;2024-01-16T09:53:46;4.97;;;2.40;;
46507;SDS011;32223;53.654;10.014;2024-01-16T09:56:15;5.10;;;2.88;;
46507;SDS011;32223;53.654;10.014;2024-01-16T09:58:42;7.88;;;3.13;;
46507;SDS011;32223;53.654;10.014;2024-01-16T10:01:10;7.45;;;2.05;;
46507;SDS011;32223;53.654;10.014;2024-01-16T10:03:37;5.88;;;2.38;;
46507;SDS011;32223;53.654;10.014;2024-01-16T10:06:04;4.65;;;2.08;;
46507;SDS011;32223;53.654;10.014;2024-01-16T10:08:31;6.82;;;1.90;;
46507;SDS011;32223;53.654;10.014;2024-01-16T10:10:57;4.70;;;1.88;;
46507;SDS011;32223;53.654;10.014;2024-01-16T10:13:23;4.55;;;2.08;;
46507;SDS011;32223;53.654;10.014;2024-01-16T10:15:49;4.65;;;1.73;;
46507;SDS011;32223;53.654;10.014;2024-01-16T10:18:24;6.35;;;1.80;;
46507;SDS011;32223;53.654;10.014;2024-01-16T10:20:57;5.75;;;1.85;;
46507;SDS011;32223;53.654;10.014;2024-01-16T10:23:23;5.95;;;2.10;;
46507;SDS011;32223;53.654;10.014;2024-01-16T10:26:06;7.32;;;1.95;;
46507;SDS011;32223;53.654;10.014;2024-01-16T10:28:32;4.40;;;2.10;;
46507;SDS011;32223;53.654;10.014;2024-01-16T10:31:04;3.50;;;1.60;;
46507;SDS011;32223;53.654;10.014;2024-01-16T10:33:31;5.68;;;1.85;;
46507;SDS011;32223;53.654;10.014;2024-01-16T10:38:36;9.73;;;4.18;;
46507;SDS011;32223;53.654;10.014;2024-01-16T10:41:18;7.90;;;2.00;;
46507;SDS011;32223;53.654;10.014;2024-01-16T10:43:44;4.38;;;1.27;;
46507;SDS011;32223;53.654;10.014;2024-01-16T10:46:13;4.65;;;1.33;;
46507;SDS011;32223;53.654;10.014;2024-01-16T10:48:41;2.67;;;1.58;;
46507;SDS011;32223;53.654;10.014;2024-01-16T10:53:44;3.15;;;1.35;;
46507;SDS011;32223;53.654;10.014;2024-01-16T10:56:11;6.57;;;1.35;;
46507;SDS011;32223;53.654;10.014;2024-01-16T10:58:38;6.57;;;1.48;;
46507;SDS011;32223;53.654;10.014;2024-01-16T11:01:06;7.20;;;1.42;;
46507;SDS011;32223;53.654;10.014;2024-01-16T11:03:49;6.43;;;1.40;;
46507;SDS011;32223;53.654;10.014;2024-01-16T11:06:16;7.80;;;1.50;;
46507;SDS011;32223;53.654;10.014;2024-01-16T11:08:45;4.35;;;0.88;;
46507;SDS011;32223;53.654;10.014;2024-01-16T11:11:11;2.42;;;1.17;;
46507;SDS011;32223;53.654;10.014;2024-01-16T11:13:38;5.55;;;1.17;;
46507;SDS011;32223;53.654;10.014;2024-01-16T11:16:05;4.22;;;1.10;;
46507;SDS011;32223;53.654;10.014;2024-01-16T11:18:32;5.22;;;1.13;;
46507;SDS011;32223;53.654;10.014;2024-01-16T11:21:09;6.55;;;1.45;;
46507;SDS011;32223;53.654;10.014;2024-01-16T11:23:37;5.72;;;2.33;;
46507;SDS011;32223;53.654;10.014;2024-01-16T11:26:45;5.30;;;1.27;;
46507;SDS011;32223;53.654;10.014;2024-01-16T11:28:54;5.68;;;1.65;;
46507;SDS011;32223;53.654;10.014;2024-01-16T11:31:27;6.45;;;1.45;;
46507;SDS011;32223;53.654;10.014;2024-01-16T11:33:54;5.38;;;1.48;;
46507;SDS011;32223;53.654;10.014;2024-01-16T11:39:07;2.78;;;1.17;;
46507;SDS011;32223;53.654;10.014;2024-01-16T11:41:53;6.45;;;1.48;;
46507;SDS011;32223;53.654;10.014;2024-01-16T11:44:41;2.95;;;1.58;;
46507;SDS011;32223;53.654;10.014;2024-01-16T11:49:50;12.63;;;2.15;;
46507;SDS011;32223;53.654;10.014;2024-01-16T11:52:38;6.40;;;1.63;;
46507;SDS011;32223;53.654;10.014;2024-01-16T11:57:57;4.43;;;1.13;;
46507;SDS011;32223;53.654;10.014;2024-01-16T12:00:43;9.82;;;1.77;;
46507;SDS011;32223;53.654;10.014;2024-01-16T12:03:16;9.15;;;1.30;;
46507;SDS011;32223;53.654;10.014;2024-01-16T12:05:54;10.77;;;1.60;;
46507;SDS011;32223;53.654;10.014;2024-01-16T12:08:23;8.48;;;1.40;;
46507;SDS011;32223;53.654;10.014;2024-01-16T12:10:49;6.05;;;1.65;;
46507;SDS011;32223;53.654;10.014;2024-01-16T12:13:15;6.80;;;1.92;;
46507;SDS011;32223;53.654;10.014;2024-01-16T12:15:41;4.68;;;2.17;;
46507;SDS011;32223;53.654;10.014;2024-01-16T12:18:07;4.85;;;1.33;;
46507;SDS011;32223;53.654;10.014;2024-01-16T12:20:35;4.50;;;1.60;;
46507;SDS011;32223;53.654;10.014;2024-01-16T12:23:02;5.57;;;2.00;;
46507;SDS011;32223;53.654;10.014;2024-01-16T12:25:30;13.40;;;5.45;;
46507;SDS011;32223;53.654;10.014;2024-01-16T12:30:26;6.20;;;1.45;;
46507;SDS011;32223;53.654;10.014;2024-01-16T12:33:10;5.53;;;1.88;;
46507;SDS011;32223;53.654;10.014;2024-01-16T12:35:40;5.50;;;1.63;;
46507;SDS011;32223;53.654;10.014;2024-01-16T12:38:12;5.90;;;1.23;;
46507;SDS011;32223;53.654;10.014;2024-01-16T12:40:39;3.67;;;1.15;;
46507;SDS011;32223;53.654;10.014;2024-01-16T12:43:07;5.35;;;1.85;;
46507;SDS011;32223;53.654;10.014;2024-01-16T12:45:34;8.23;;;1.98;;
46507;SDS011;32223;53.654;10.014;2024-01-16T12:48:01;4.22;;;1.60;;
46507;SDS011;32223;53.654;10.014;2024-01-16T12:50:29;10.98;;;2.30;;
46507;SDS011;32223;53.654;10.014;2024-01-16T12:55:28;5.30;;;1.83;;
46507;SDS011;32223;53.654;10.014;2024-01-16T13:00:45;4.20;;;1.40;;
46507;SDS011;32223;53.654;10.014;2024-01-16T13:03:15;4.88;;;1.45;;
46507;SDS011;32223;53.654;10.014;2024-01-16T13:05:42;3.65;;;1.20;;
46507;SDS011;32223;53.654;10.014;2024-01-16T13:08:08;5.93;;;1.42;;
46507;SDS011;32223;53.654;10.014;2024-01-16T13:10:34;4.63;;;1.40;;
46507;SDS011;32223;53.654;10.014;2024-01-16T13:13:13;6.30;;;1.40;;
46507;SDS011;32223;53.654;10.014;2024-01-16T13:18:22;3.47;;;1.15;;
46507;SDS011;32223;53.654;10.014;2024-01-16T13:20:49;7.32;;;1.15;;
46507;SDS011;32223;53.654;10.014;2024-01-16T13:23:15;9.68;;;2.42;;
46507;SDS011;32223;53.654;10.014;2024-01-16T13:25:44;3.58;;;1.42;;
46507;SDS011;32223;53.654;10.014;2024-01-16T13:28:12;4.93;;;2.03;;
46507;SDS011;32223;53.654;10.014;2024-01-16T13:30:39;6.13;;;2.08;;
46507;SDS011;32223;53.654;10.014;2024-01-16T13:33:05;3.20;;;1.55;;
46507;SDS011;32223;53.654;10.014;2024-01-16T13:35:30;6.25;;;1.80;;
46507;SDS011;32223;53.654;10.014;2024-01-16T13:37:56;2.97;;;1.02;;
46507;SDS011;32223;53.654;10.014;2024-01-16T13:40:23;3.42;;;1.52;;
46507;SDS011;32223;53.654;10.014;2024-01-16T13:42:49;8.35;;;2.58;;
46507;SDS011;32223;53.654;10.014;2024-01-16T13:45:14;12.10;;;4.63;;
46507;SDS011;32223;53.654;10.014;2024-01-16T13:47:41;6.78;;;1.20;;
46507;SDS011;32223;53.654;10.014;2024-01-16T13:50:07;3.85;;;1.35;;
46507;SDS011;32223;53.654;10.014;2024-01-16T13:52:34;2.80;;;1.27;;
46507;SDS011;32223;53.654;10.014;2024-01-16T13:55:00;3.58;;;1.20;;
46507;SDS011;32223;53.654;10.014;2024-01-16T13:57:30;10.23;;;3.58;;
46507;SDS011;32223;53.654;10.014;2024-01-16T13:59:56;4.32;;;1.52;;
46507;SDS011;32223;53.654;10.014;2024-01-16T14:02:22;3.28;;;1.52;;
46507;SDS011;32223;53.654;10.014;2024-01-16T14:04:48;5.43;;;1.40;;
46507;SDS011;32223;53.654;10.014;2024-01-16T14:07:13;4.90;;;1.30;;
46507;SDS011;32223;53.654;10.014;2024-01-16T14:09:39;5.50;;;1.40;;
46507;SDS011;32223;53.654;10.014;2024-01-16T14:12:08;5.70;;;1.42;;
46507;SDS011;32223;53.654;10.014;2024-01-16T14:14:34;7.18;;;2.40;;
46507;SDS011;32223;53.654;10.014;2024-01-16T14:17:02;4.68;;;1.83;;
46507;SDS011;32223;53.654;10.014;2024-01-16T14:19:28;11.18;;;2.47;;
46507;SDS011;32223;53.654;10.014;2024-01-16T14:21:55;5.57;;;2.20;;
46507;SDS011;32223;53.654;10.014;2024-01-16T14:24:21;5.22;;;3.05;;
46507;SDS011;32223;53.654;10.014;2024-01-16T14:26:47;8.30;;;2.60;;
46507;SDS011;32223;53.654;10.014;2024-01-16T14:29:21;8.32;;;2.47;;
46507;SDS011;32223;53.654;10.014;2024-01-16T14:31:47;7.60;;;2.67;;
46507;SDS011;32223;53.654;10.014;2024-01-16T14:34:13;6.70;;;2.50;;
46507;SDS011;32223;53.654;10.014;2024-01-16T14:36:40;6.40;;;2.47;;
46507;SDS011;32223;53.654;10.014;2024-01-16T14:39:06;11.50;;;6.03;;
46507;SDS011;32223;53.654;10.014;2024-01-16T14:41:41;8.27;;;3.20;;
46507;SDS011;32223;53.654;10.014;2024-01-16T14:44:08;5.55;;;3.55;;
46507;SDS011;32223;53.654;10.014;2024-01-16T14:46:35;6.40;;;2.42;;
46507;SDS011;32223;53.654;10.014;2024-01-16T14:49:01;5.38;;;2.13;;
46507;SDS011;32223;53.654;10.014;2024-01-16T14:51:27;8.50;;;2.95;;
46507;SDS011;32223;53.654;10.014;2024-01-16T14:53:53;13.95;;;3.42;;
46507;SDS011;32223;53.654;10.014;2024-01-16T14:56:18;10.85;;;2.92;;